Time;durP1;ratioP1;P1;durP2;ratioP2;P2;SDS_P1;SDS_P2;PMS_P1;PMS_P2;Temp;Humidity;BMP_temperature;BMP_pressure;BME280_temperature;BME280_humidity;BME280_pressure;Samples;Min_cycle;Max_cycle;Signal;HPM_P1;HPM_P2
2022/08/03 00:00:51;;;;;;;2.95;1.77;;;22.20;63.30;;;;;;5051581;28;20067;-72
2022/08/03 00:03:18;;;;;;;1.85;1.60;;;22.70;60.70;;;;;;5051623;28;20053;-72
2022/08/03 00:05:44;;;;;;;3.45;1.70;;;21.40;64.40;;;;;;5051862;28;20049;-72
2022/08/03 00:08:11;;;;;;;3.58;1.98;;;22.80;65.50;;;;;;5052474;28;20079;-72
2022/08/03 00:10:38;;;;;;;3.13;1.85;;;22.30;63.00;;;;;;5051172;28;20140;-72
2022/08/03 00:13:04;;;;;;;3.30;1.67;;;22.60;60.70;;;;;;5047923;28;20049;-72
2022/08/03 00:15:31;;;;;;;2.17;1.55;;;22.50;65.60;;;;;;5050931;28;20155;-72
2022/08/03 00:17:59;;;;;;;2.47;1.65;;;22.60;60.70;;;;;;5051600;28;20061;-72
2022/08/03 00:20:26;;;;;;;3.33;1.75;;;22.60;60.70;;;;;;5051119;28;20078;-73
2022/08/03 00:22:52;;;;;;;2.72;1.70;;;21.50;64.50;;;;;;5051351;28;20059;-72
2022/08/03 00:25:19;;;;;;;1.90;1.45;;;22.50;60.70;;;;;;5051328;28;20071;-72
2022/08/03 00:27:46;;;;;;;2.40;1.73;;;22.60;60.80;;;;;;5051344;28;20059;-72
2022/08/03 00:30:12;;;;;;;2.08;1.67;;;23.20;65.50;;;;;;5050482;28;20140;-72
2022/08/03 00:32:39;;;;;;;2.88;1.95;;;22.50;60.80;;;;;;5052157;28;20052;-74
2022/08/03 00:35:08;;;;;;;3.25;1.83;;;22.50;60.80;;;;;;5051290;28;20055;-73
2022/08/03 00:37:35;;;;;;;2.35;1.60;;;22.50;65.10;;;;;;5052106;28;20052;-72
2022/08/03 00:40:01;;;;;;;2.53;1.60;;;22.50;60.80;;;;;;5050695;28;20067;-73
2022/08/03 00:42:28;;;;;;;2.47;1.52;;;22.50;60.80;;;;;;5051209;28;20127;-72
2022/08/03 00:44:55;;;;;;;2.30;1.60;;;21.40;64.20;;;;;;5051090;28;20131;-72
2022/08/03 00:47:22;;;;;;;1.92;1.60;;;22.50;60.80;;;;;;5050719;28;20057;-72
2022/08/03 00:49:48;;;;;;;3.45;1.50;;;22.50;65.00;;;;;;5050707;28;20053;-72
2022/08/03 00:52:16;;;;;;;2.03;1.50;;;22.40;65.80;;;;;;5050234;28;20133;-72
2022/08/03 00:54:43;;;;;;;2.58;1.52;;;22.30;65.70;;;;;;5052393;28;20473;-72
2022/08/03 00:57:10;;;;;;;2.05;1.42;;;22.50;60.90;;;;;;5051716;28;20124;-74
2022/08/03 00:59:38;;;;;;;2.85;1.98;;;22.50;60.90;;;;;;5050152;28;20077;-73
2022/08/03 01:02:05;;;;;;;2.63;1.70;;;22.50;60.90;;;;;;5051566;28;20127;-72
2022/08/03 01:04:32;;;;;;;3.13;1.63;;;22.40;66.40;;;;;;5050761;28;20064;-72
2022/08/03 01:07:03;;;;;;;2.30;1.50;;;22.40;60.90;;;;;;5050528;28;20409;-72
2022/08/03 01:09:37;;;;;;;3.75;1.80;;;22.40;60.90;;;;;;5051840;28;20056;-72
2022/08/03 01:12:07;;;;;;;2.20;1.60;;;22.60;65.10;;;;;;5050162;28;20051;-72
2022/08/03 01:14:36;;;;;;;3.15;1.50;;;22.40;65.60;;;;;;5030812;28;20057;-72
2022/08/03 01:17:18;;;;;;;3.90;1.60;;;22.40;60.90;;;;;;5030782;28;20508;-72
2022/08/03 01:19:50;;;;;;;4.13;1.60;;;22.40;60.90;;;;;;5038322;28;20148;-72
2022/08/03 01:22:37;;;;;;;2.30;1.70;;;22.40;61.00;;;;;;5050310;28;20504;-72
2022/08/03 01:25:09;;;;;;;2.70;1.80;;;21.70;64.60;;;;;;5051753;28;20124;-72
2022/08/03 01:27:43;;;;;;;2.50;1.58;;;21.30;64.30;;;;;;5050444;28;20053;-72
2022/08/03 01:30:11;;;;;;;2.15;1.70;;;22.40;61.00;;;;;;5050414;28;20052;-72
2022/08/03 01:32:41;;;;;;;2.22;1.70;;;22.40;61.00;;;;;;5051291;28;20064;-72
2022/08/03 01:35:10;;;;;;;3.08;1.50;;;22.40;61.00;;;;;;5050111;28;20141;-74
2022/08/03 01:37:40;;;;;;;2.58;1.50;;;22.30;65.30;;;;;;5050561;28;20056;-72
2022/08/03 01:40:07;;;;;;;2.13;1.60;;;23.40;65.20;;;;;;5050427;28;20480;-74
2022/08/03 01:42:34;;;;;;;1.65;1.45;;;22.20;64.60;;;;;;5047010;28;20053;-74
2022/08/03 01:45:01;;;;;;;2.78;1.85;;;22.40;61.00;;;;;;5030527;28;20069;-74
2022/08/03 01:47:29;;;;;;;3.28;1.95;;;22.40;61.00;;;;;;5029972;28;20132;-74
2022/08/03 01:49:56;;;;;;;2.53;1.40;;;22.40;61.00;;;;;;5035236;28;20063;-72
2022/08/03 01:52:22;;;;;;;1.67;1.40;;;22.30;64.40;;;;;;5050144;28;20512;-75
2022/08/03 01:54:50;;;;;;;3.00;1.77;;;22.40;61.00;;;;;;5050021;28;20048;-74
2022/08/03 01:57:18;;;;;;;1.70;1.48;;;22.40;65.60;;;;;;5050389;28;20053;-74
2022/08/03 01:59:45;;;;;;;2.40;1.73;;;22.40;60.90;;;;;;5051765;28;20055;-75
2022/08/03 02:02:12;;;;;;;2.08;1.50;;;22.40;60.90;;;;;;5053672;28;20056;-75
2022/08/03 02:04:40;;;;;;;2.42;1.70;;;22.10;65.00;;;;;;5054278;28;20131;-74
2022/08/03 02:07:07;;;;;;;3.28;1.60;;;21.20;64.20;;;;;;5053739;28;20052;-74
2022/08/03 02:09:34;;;;;;;2.40;1.60;;;22.30;60.90;;;;;;5054121;28;20057;-75
2022/08/03 02:12:00;;;;;;;2.00;1.50;;;22.30;60.90;;;;;;5054533;28;20469;-74
2022/08/03 02:14:27;;;;;;;2.53;1.67;;;22.40;61.00;;;;;;5053708;28;20140;-74
2022/08/03 02:16:54;;;;;;;2.25;1.70;;;22.30;61.00;;;;;;5054877;28;20587;-74
2022/08/03 02:19:21;;;;;;;1.80;1.50;;;22.30;61.00;;;;;;5054791;28;20140;-74
2022/08/03 02:21:49;;;;;;;3.58;1.50;;;22.30;61.00;;;;;;5053592;28;20136;-75
2022/08/03 02:24:15;;;;;;;2.95;1.80;;;22.30;61.00;;;;;;5053437;28;20060;-74
2022/08/03 02:26:42;;;;;;;2.05;1.63;;;23.10;65.10;;;;;;5053762;28;20063;-75
2022/08/03 02:29:13;;;;;;;3.00;1.45;;;22.30;61.60;;;;;;5053176;28;20079;-74
2022/08/03 02:31:40;;;;;;;2.13;1.60;;;22.30;65.40;;;;;;5053435;28;20404;-74
2022/08/03 02:34:11;;;;;;;2.83;1.58;;;22.30;61.70;;;;;;5053491;28;20060;-73
2022/08/03 02:36:39;;;;;;;2.53;1.55;;;22.30;65.10;;;;;;5053278;28;20063;-74
2022/08/03 02:39:08;;;;;;;2.47;1.65;;;22.30;61.10;;;;;;5054311;28;20072;-72
2022/08/03 02:41:36;;;;;;;2.95;1.65;;;22.20;61.10;;;;;;5053236;28;20061;-72
2022/08/03 02:44:07;;;;;;;2.67;1.67;;;22.20;61.20;;;;;;5053328;28;20056;-72
2022/08/03 02:46:37;;;;;;;2.67;1.63;;;22.20;61.10;;;;;;5053295;28;20063;-72
2022/08/03 02:49:03;;;;;;;4.93;1.80;;;22.30;65.50;;;;;;5054561;28;20405;-72
2022/08/03 02:51:32;;;;;;;2.13;1.63;;;21.10;64.20;;;;;;5052758;28;20048;-72
2022/08/03 02:53:58;;;;;;;2.75;1.50;;;22.30;64.80;;;;;;5053876;28;20041;-72
2022/08/03 02:56:26;;;;;;;1.90;1.50;;;22.20;61.20;;;;;;5052936;28;20059;-72
2022/08/03 02:58:53;;;;;;;2.83;1.60;;;22.10;61.10;;;;;;5053172;28;20589;-74
2022/08/03 03:01:20;;;;;;;2.78;1.40;;;21.30;64.20;;;;;;5052252;28;20477;-72
2022/08/03 03:03:47;;;;;;;1.63;1.40;;;22.20;65.80;;;;;;5052911;28;20057;-72
2022/08/03 03:06:15;;;;;;;1.83;1.40;;;22.20;61.20;;;;;;5052717;28;20057;-72
2022/08/03 03:08:41;;;;;;;2.70;1.48;;;22.20;61.30;;;;;;5053938;28;20053;-74
2022/08/03 03:11:08;;;;;;;2.63;1.70;;;22.20;61.20;;;;;;5052841;28;20132;-72
2022/08/03 03:13:36;;;;;;;1.75;1.40;;;22.70;65.20;;;;;;5053952;28;20055;-72
2022/08/03 03:16:04;;;;;;;3.03;1.40;;;21.90;65.50;;;;;;5053668;28;20056;-72
2022/08/03 03:18:31;;;;;;;3.45;1.50;;;22.10;61.20;;;;;;5052558;28;20412;-72
2022/08/03 03:20:58;;;;;;;3.20;1.70;;;22.10;66.00;;;;;;5052086;28;20132;-72
2022/08/03 03:23:25;;;;;;;2.35;1.80;;;22.20;61.20;;;;;;5052305;28;20055;-72
2022/08/03 03:25:52;;;;;;;2.47;1.50;;;21.10;64.20;;;;;;5052263;28;20052;-72
2022/08/03 03:28:19;;;;;;;2.70;1.42;;;22.10;64.80;;;;;;5053499;28;20048;-72
2022/08/03 03:30:47;;;;;;;2.20;1.60;;;22.20;64.70;;;;;;5053356;28;20051;-72
2022/08/03 03:33:14;;;;;;;1.98;1.63;;;22.10;61.20;;;;;;5053124;28;20508;-72
2022/08/03 03:35:41;;;;;;;2.28;1.20;;;22.10;61.20;;;;;;5052447;28;20074;-72
2022/08/03 03:38:07;;;;;;;4.75;1.60;;;22.10;61.20;;;;;;5053179;28;20056;-72
2022/08/03 03:40:35;;;;;;;2.38;1.60;;;22.10;60.70;;;;;;5052040;28;20060;-73
2022/08/03 03:43:01;;;;;;;2.30;1.45;;;22.00;64.70;;;;;;5053032;28;20049;-72
2022/08/03 03:45:28;;;;;;;2.10;1.40;;;22.10;61.20;;;;;;5051822;28;20082;-72
2022/08/03 03:47:56;;;;;;;3.03;1.60;;;22.10;61.20;;;;;;5053108;28;20124;-72
2022/08/03 03:50:23;;;;;;;2.60;1.60;;;22.10;61.20;;;;;;5052491;28;20120;-73
2022/08/03 03:52:49;;;;;;;3.40;1.85;;;22.10;61.20;;;;;;5051547;28;20053;-72
2022/08/03 03:55:17;;;;;;;2.10;1.55;;;21.70;64.40;;;;;;5051765;28;20044;-72
2022/08/03 03:57:44;;;;;;;2.08;1.60;;;22.10;61.20;;;;;;5052086;28;20130;-72
2022/08/03 04:00:12;;;;;;;2.38;1.55;;;21.90;64.90;;;;;;5051787;28;20400;-72
2022/08/03 04:02:39;;;;;;;3.05;1.60;;;21.10;64.30;;;;;;5052592;28;20049;-72
2022/08/03 04:10:59;;;;;;;3.22;1.40;;;22.20;64.30;;;;;;5051101;28;20044;-72
2022/08/03 04:13:26;;;;;;;2.58;1.67;;;22.00;61.20;;;;;;5052240;28;20044;-72
2022/08/03 04:15:52;;;;;;;2.05;1.40;;;22.00;61.20;;;;;;5052302;28;20048;-72
2022/08/03 04:18:19;;;;;;;2.78;1.70;;;21.90;66.00;;;;;;5052177;28;20041;-72
2022/08/03 04:20:47;;;;;;;3.85;1.58;;;22.40;64.60;;;;;;5047533;28;20067;-72
2022/08/03 04:23:14;;;;;;;2.20;1.70;;;22.00;61.20;;;;;;5035762;28;20048;-72
2022/08/03 04:25:41;;;;;;;2.97;1.73;;;22.00;61.30;;;;;;5052304;28;20045;-72
2022/08/03 04:28:08;;;;;;;2.88;2.10;;;22.00;61.30;;;;;;5050254;28;20127;-72
2022/08/03 04:30:35;;;;;;;2.15;1.50;;;22.00;60.80;;;;;;5051081;28;20065;-72
2022/08/03 04:33:02;;;;;;;2.90;1.50;;;22.00;61.20;;;;;;5048424;28;20128;-72
2022/08/03 04:35:29;;;;;;;2.05;1.33;;;22.00;61.20;;;;;;5050919;28;20482;-72
2022/08/03 04:37:57;;;;;;;4.43;1.70;;;22.00;61.20;;;;;;5050474;28;20175;-72
2022/08/03 04:40:26;;;;;;;3.88;1.50;;;22.00;61.20;;;;;;5048362;28;20487;-72
2022/08/03 04:42:53;;;;;;;1.73;1.40;;;22.10;64.60;;;;;;5051847;28;20408;-72
2022/08/03 04:45:20;;;;;;;3.80;1.73;;;22.00;61.20;;;;;;5051914;28;20079;-74
2022/08/03 04:47:47;;;;;;;2.10;1.50;;;22.10;61.30;;;;;;5051219;28;20140;-72
2022/08/03 04:50:14;;;;;;;2.38;1.70;;;21.00;65.60;;;;;;5052015;28;20080;-72
2022/08/03 04:52:41;;;;;;;3.22;1.70;;;22.00;61.30;;;;;;5051881;28;20048;-72
2022/08/03 04:55:10;;;;;;;5.05;2.22;;;22.00;61.40;;;;;;5050822;28;20052;-72
2022/08/03 04:57:36;;;;;;;3.92;2.00;;;22.00;61.60;;;;;;5051032;28;20132;-72
2022/08/03 05:00:04;;;;;;;2.85;1.90;;;22.10;65.40;;;;;;5051536;28;20071;-72
2022/08/03 05:02:31;;;;;;;3.03;1.58;;;22.00;61.80;;;;;;5051666;28;20045;-73
2022/08/03 05:04:58;;;;;;;6.03;1.60;;;21.20;65.20;;;;;;5047613;28;20485;-72
2022/08/03 05:07:25;;;;;;;2.50;1.55;;;21.80;61.70;;;;;;5044998;28;20051;-72
2022/08/03 05:09:51;;;;;;;3.25;1.80;;;21.90;65.40;;;;;;5050461;28;20053;-72
2022/08/03 05:12:19;;;;;;;2.75;1.67;;;21.90;65.10;;;;;;5051651;28;20067;-72
2022/08/03 05:14:46;;;;;;;2.78;1.60;;;22.00;61.60;;;;;;5048719;28;20052;-72
2022/08/03 05:17:13;;;;;;;3.30;1.77;;;21.90;66.50;;;;;;5050573;28;20064;-72
2022/08/03 05:19:40;;;;;;;3.10;1.75;;;22.00;61.60;;;;;;5049006;28;20056;-72
2022/08/03 05:22:07;;;;;;;2.53;1.50;;;21.70;65.20;;;;;;5048295;28;20053;-72
2022/08/03 05:24:33;;;;;;;2.15;1.50;;;22.10;61.50;;;;;;5050154;28;20502;-72
2022/08/03 05:27:00;;;;;;;1.42;1.30;;;22.00;61.50;;;;;;5056096;28;20061;-73
2022/08/03 05:29:28;;;;;;;2.10;1.60;;;21.70;65.30;;;;;;5050007;28;20118;-72
2022/08/03 05:31:55;;;;;;;1.95;1.48;;;21.80;65.20;;;;;;5050151;28;20064;-72
2022/08/03 05:34:22;;;;;;;2.78;1.80;;;21.90;65.30;;;;;;5051833;28;20056;-72
2022/08/03 05:36:49;;;;;;;2.10;1.50;;;22.00;61.30;;;;;;5054833;28;20063;-71
2022/08/03 05:39:15;;;;;;;2.25;1.60;;;21.50;65.80;;;;;;5055205;28;20409;-71
2022/08/03 05:41:42;;;;;;;2.50;1.45;;;22.00;61.30;;;;;;5054106;28;20059;-72
2022/08/03 05:44:09;;;;;;;2.33;1.52;;;23.10;66.00;;;;;;5054509;28;20476;-72
2022/08/03 05:46:37;;;;;;;2.05;1.50;;;22.00;64.70;;;;;;5054573;28;20107;-72
2022/08/03 05:49:04;;;;;;;2.58;1.45;;;21.90;65.60;;;;;;5054353;28;20057;-72
2022/08/03 05:51:30;;;;;;;3.13;1.50;;;22.00;61.30;;;;;;5055132;28;20052;-72
2022/08/03 05:53:57;;;;;;;2.72;1.60;;;22.00;61.30;;;;;;5050813;28;20059;-72
2022/08/03 05:56:24;;;;;;;1.50;1.13;;;21.90;66.10;;;;;;5034267;28;20490;-71
2022/08/03 05:58:51;;;;;;;2.28;1.33;;;22.10;61.40;;;;;;5034499;28;20064;-72
2022/08/03 06:01:20;;;;;;;2.30;1.30;;;22.90;66.60;;;;;;5033441;28;20057;-72
2022/08/03 06:03:48;;;;;;;2.22;1.50;;;22.00;61.30;;;;;;5034100;28;20045;-74
2022/08/03 06:06:15;;;;;;;1.70;1.38;;;22.00;61.30;;;;;;5047333;28;20124;-74
2022/08/03 06:08:42;;;;;;;2.20;1.40;;;22.40;61.40;;;;;;5052060;28;20041;-74
2022/08/03 06:11:09;;;;;;;1.65;1.48;;;22.20;61.10;;;;;;5053966;28;20065;-75
2022/08/03 06:13:35;;;;;;;2.30;1.30;;;22.20;60.90;;;;;;5053724;28;20127;-74
2022/08/03 06:16:02;;;;;;;2.65;1.58;;;22.50;65.10;;;;;;5055177;28;20057;-74
2022/08/03 06:18:29;;;;;;;2.50;1.20;;;22.40;60.70;;;;;;5053866;28;20055;-72
2022/08/03 06:20:57;;;;;;;1.60;1.10;;;22.50;60.60;;;;;;5053440;28;20432;-75
2022/08/03 06:23:24;;;;;;;2.78;1.48;;;22.50;60.40;;;;;;5054463;28;20044;-75
2022/08/03 06:25:51;;;;;;;2.53;1.58;;;22.80;65.80;;;;;;5054008;28;20374;-75
2022/08/03 06:28:17;;;;;;;1.65;1.40;;;22.80;60.20;;;;;;5054688;28;20055;-74
2022/08/03 06:30:44;;;;;;;2.05;1.40;;;23.30;63.60;;;;;;5054522;28;20127;-74
2022/08/03 06:33:11;;;;;;;2.72;1.40;;;23.00;60.00;;;;;;5053461;28;20053;-74
2022/08/03 06:35:37;;;;;;;2.28;1.40;;;23.10;59.90;;;;;;5053844;28;20477;-74
2022/08/03 06:38:05;;;;;;;1.48;1.27;;;23.10;59.70;;;;;;5052729;28;20048;-75
2022/08/03 06:40:38;;;;;;;3.10;1.40;;;23.20;59.40;;;;;;5052278;28;20589;-75
2022/08/03 06:43:05;;;;;;;2.13;1.50;;;23.50;63.60;;;;;;5050016;28;20088;-75
2022/08/03 06:45:33;;;;;;;1.75;1.30;;;23.40;59.20;;;;;;5032790;28;20483;-73
2022/08/03 06:48:03;;;;;;;3.97;1.60;;;23.30;64.00;;;;;;5033293;28;20064;-72
2022/08/03 06:50:32;;;;;;;3.95;1.45;;;23.50;58.90;;;;;;5033143;28;20141;-74
2022/08/03 06:52:59;;;;;;;1.38;1.20;;;23.60;58.90;;;;;;5045285;28;20091;-72
2022/08/03 06:55:27;;;;;;;2.35;1.15;;;24.60;63.20;;;;;;5054257;28;20484;-73
2022/08/03 06:57:53;;;;;;;1.70;1.20;;;23.90;62.90;;;;;;5052206;28;20057;-72
2022/08/03 07:00:20;;;;;;;2.25;1.40;;;23.70;58.40;;;;;;5047021;28;20059;-73
2022/08/03 07:02:47;;;;;;;5.57;1.45;;;23.80;62.60;;;;;;5053129;28;20512;-73
2022/08/03 07:05:14;;;;;;;3.05;1.58;;;23.90;58.20;;;;;;5053199;28;20055;-73
2022/08/03 07:07:41;;;;;;;7.82;1.60;;;23.90;58.00;;;;;;5052716;28;20053;-74
2022/08/03 07:10:08;;;;;;;2.65;1.30;;;24.00;58.00;;;;;;5052697;28;20053;-74
2022/08/03 07:12:36;;;;;;;2.33;1.40;;;23.90;57.80;;;;;;5052857;28;20080;-73
2022/08/03 07:15:04;;;;;;;3.58;1.30;;;24.00;57.90;;;;;;5052573;28;20049;-73
2022/08/03 07:17:32;;;;;;;2.45;1.42;;;24.00;62.80;;;;;;5052043;28;20048;-73
2022/08/03 07:20:00;;;;;;;2.30;1.38;;;24.00;57.80;;;;;;5049692;28;20547;-73
2022/08/03 07:22:27;;;;;;;3.33;1.35;;;24.10;61.70;;;;;;5052973;28;20049;-74
2022/08/03 07:24:53;;;;;;;2.40;1.30;;;24.10;57.80;;;;;;5052070;28;20493;-73
2022/08/03 07:27:20;;;;;;;3.03;1.50;;;24.20;62.10;;;;;;5049978;28;20200;-73
2022/08/03 07:29:48;;;;;;;2.35;1.25;;;24.10;57.70;;;;;;5051976;28;20140;-73
2022/08/03 07:32:15;;;;;;;4.13;1.60;;;24.10;57.60;;;;;;5051327;28;20135;-73
2022/08/03 07:34:42;;;;;;;2.80;1.70;;;24.20;62.10;;;;;;5049762;28;20402;-73
2022/08/03 07:37:09;;;;;;;3.85;1.63;;;24.20;62.30;;;;;;5051852;28;20128;-73
2022/08/03 07:39:35;;;;;;;3.78;1.63;;;24.20;62.10;;;;;;5051775;28;20055;-74
2022/08/03 07:42:02;;;;;;;3.95;1.38;;;24.30;57.50;;;;;;5052562;28;20404;-73
2022/08/03 07:44:29;;;;;;;3.70;1.42;;;24.50;62.00;;;;;;5050826;28;20060;-73
2022/08/03 07:46:57;;;;;;;2.85;1.50;;;24.30;57.50;;;;;;5050574;28;20128;-74
2022/08/03 07:49:24;;;;;;;2.25;1.58;;;24.30;57.40;;;;;;5042132;28;20111;-75
2022/08/03 07:52:46;;;;;;;2.03;1.30;;;24.60;57.70;;;;;;5051338;28;20110;-76
2022/08/03 07:54:37;;;;;;;2.28;1.30;;;24.80;62.40;;;;;;5050355;28;20478;-75
2022/08/03 07:57:04;;;;;;;1.80;1.30;;;24.40;57.50;;;;;;5052429;28;20482;-75
2022/08/03 07:59:31;;;;;;;2.53;1.58;;;24.40;57.40;;;;;;5051943;28;20056;-76
2022/08/03 08:01:59;;;;;;;4.20;1.40;;;24.50;57.30;;;;;;5051362;28;20663;-76
2022/08/03 08:04:26;;;;;;;2.63;1.35;;;24.70;61.30;;;;;;5051198;28;20049;-73
2022/08/03 08:06:52;;;;;;;2.83;1.50;;;24.50;57.40;;;;;;5051710;28;20144;-73
2022/08/03 08:09:19;;;;;;;2.40;1.27;;;24.50;57.30;;;;;;5052016;28;20063;-73
2022/08/03 08:11:46;;;;;;;2.92;1.30;;;24.10;62.30;;;;;;5051040;28;20133;-73
2022/08/03 08:14:12;;;;;;;2.35;1.20;;;24.60;57.20;;;;;;5051684;28;20045;-74
2022/08/03 08:16:39;;;;;;;2.65;1.45;;;24.70;57.20;;;;;;5051737;28;20477;-73
2022/08/03 08:19:07;;;;;;;2.30;1.40;;;24.70;62.50;;;;;;5051589;28;20080;-73
2022/08/03 08:21:34;;;;;;;2.35;1.40;;;24.60;61.90;;;;;;5051232;28;20110;-73
2022/08/03 08:24:00;;;;;;;2.28;1.40;;;24.90;57.30;;;;;;5051471;28;20048;-74
2022/08/03 08:26:27;;;;;;;3.85;1.85;;;24.90;57.20;;;;;;5051451;28;20060;-75
2022/08/03 08:28:54;;;;;;;4.50;1.52;;;26.20;62.40;;;;;;5051544;28;20139;-76
2022/08/03 08:31:21;;;;;;;1.80;1.30;;;24.90;62.90;;;;;;5050811;28;20148;-74
2022/08/03 08:33:47;;;;;;;1.80;1.27;;;24.90;57.10;;;;;;5047716;28;20052;-75
2022/08/03 08:36:16;;;;;;;2.58;1.25;;;24.80;61.10;;;;;;5050709;28;20052;-75
2022/08/03 08:38:43;;;;;;;3.58;1.25;;;25.10;61.50;;;;;;5049477;28;20080;-75
2022/08/03 08:41:10;;;;;;;2.72;1.40;;;25.30;61.10;;;;;;5049045;28;20056;-76
2022/08/03 08:43:37;;;;;;;2.60;1.30;;;25.10;57.10;;;;;;5051391;28;20537;-72
2022/08/03 08:46:06;;;;;;;3.42;1.40;;;25.10;57.00;;;;;;5051879;28;20059;-73
2022/08/03 08:48:33;;;;;;;2.90;1.20;;;25.20;57.00;;;;;;5051347;28;20505;-72
2022/08/03 08:51:01;;;;;;;3.78;1.42;;;25.20;57.00;;;;;;5052262;28;20045;-74
2022/08/03 08:53:31;;;;;;;2.03;1.30;;;25.20;56.90;;;;;;5051425;28;20063;-74
2022/08/03 08:55:59;;;;;;;2.50;1.48;;;25.20;56.90;;;;;;5051159;28;20489;-74
2022/08/03 08:58:26;;;;;;;5.00;1.90;;;25.20;56.80;;;;;;5049314;28;20056;-74
2022/08/03 09:00:53;;;;;;;6.88;2.60;;;25.30;61.50;;;;;;5050295;28;20136;-74
2022/08/03 09:03:20;;;;;;;5.72;3.10;;;25.30;56.80;;;;;;5049749;28;20383;-74
2022/08/03 09:05:48;;;;;;;6.85;3.20;;;25.30;56.80;;;;;;5048920;28;20132;-74
2022/08/03 09:08:15;;;;;;;5.28;2.83;;;25.30;56.80;;;;;;5049273;28;20061;-74
2022/08/03 09:10:44;;;;;;;5.30;2.92;;;24.80;59.30;;;;;;5050613;28;20124;-74
2022/08/03 09:13:10;;;;;;;6.15;3.03;;;25.20;61.50;;;;;;5050170;28;20102;-74
2022/08/03 09:15:38;;;;;;;5.25;3.40;;;25.40;56.80;;;;;;5051307;28;20132;-74
2022/08/03 09:18:04;;;;;;;6.57;3.35;;;25.40;62.00;;;;;;5050723;28;20059;-74
2022/08/03 09:20:32;;;;;;;7.60;3.65;;;25.40;56.80;;;;;;5051135;28;20049;-74
2022/08/03 09:22:59;;;;;;;8.50;3.30;;;25.50;56.80;;;;;;5050051;28;20056;-74
2022/08/03 09:25:30;;;;;;;5.10;3.22;;;25.50;56.80;;;;;;5049799;28;20045;-74
2022/08/03 09:28:08;;;;;;;7.60;3.67;;;25.40;56.80;;;;;;5050649;28;20482;-74
2022/08/03 09:30:35;;;;;;;7.10;4.20;;;25.50;56.90;;;;;;5050219;28;20053;-74
2022/08/03 09:33:02;;;;;;;6.03;3.70;;;24.90;61.10;;;;;;5050356;28;20139;-76
2022/08/03 09:35:29;;;;;;;7.95;4.32;;;25.50;56.80;;;;;;5059728;28;20056;-75
2022/08/03 09:38:15;;;;;;;10.82;6.78;;;25.50;56.80;;;;;;5070569;28;20067;-76
2022/08/03 09:40:41;;;;;;;14.77;8.20;;;25.60;59.60;;;;;;5069821;28;20067;-75
2022/08/03 09:43:10;;;;;;;16.25;9.68;;;25.50;61.40;;;;;;5069461;28;20095;-74
2022/08/03 09:45:37;;;;;;;15.90;10.23;;;25.30;61.70;;;;;;5070532;28;20050;-75
2022/08/03 09:48:23;;;;;;;14.35;9.35;;;25.50;56.80;;;;;;5071075;28;20053;-73
2022/08/03 09:50:51;;;;;;;14.30;9.63;;;25.40;60.00;;;;;;5057230;28;20429;-74
2022/08/03 09:53:18;;;;;;;15.98;9.50;;;25.40;56.90;;;;;;5050851;28;20227;-74
2022/08/03 09:55:55;;;;;;;14.70;9.15;;;25.40;56.90;;;;;;5051588;28;20045;-74
2022/08/03 09:58:23;;;;;;;13.07;8.90;;;25.40;57.00;;;;;;5051926;28;20131;-73
2022/08/03 10:00:57;;;;;;;13.05;8.23;;;25.20;60.10;;;;;;5058147;28;20080;-73
2022/08/03 10:03:25;;;;;;;10.82;8.05;;;25.40;57.10;;;;;;5050522;28;20061;-74
2022/08/03 10:05:52;;;;;;;13.20;8.30;;;25.50;57.30;;;;;;5051067;28;20144;-74
2022/08/03 10:08:19;;;;;;;14.38;8.65;;;25.40;60.30;;;;;;5051045;28;20045;-74
2022/08/03 10:10:47;;;;;;;13.30;7.55;;;25.30;59.50;;;;;;5050637;28;20049;-75
2022/08/03 10:13:15;;;;;;;11.38;7.43;;;25.60;57.30;;;;;;5050133;28;20413;-75
2022/08/03 10:15:43;;;;;;;12.60;7.38;;;25.50;57.20;;;;;;5045446;28;20513;-75
2022/08/03 10:18:09;;;;;;;11.65;7.05;;;25.10;61.80;;;;;;5038327;28;20049;-74
2022/08/03 10:20:37;;;;;;;12.40;6.93;;;25.40;57.40;;;;;;5041608;28;20042;-74
2022/08/03 10:23:04;;;;;;;12.05;7.32;;;25.50;57.30;;;;;;5042357;28;20077;-74
2022/08/03 10:25:30;;;;;;;12.80;7.57;;;25.50;57.30;;;;;;5043471;28;20071;-74
2022/08/03 10:27:57;;;;;;;10.27;6.80;;;25.50;57.30;;;;;;5047554;28;20053;-74
2022/08/03 10:30:25;;;;;;;9.20;6.60;;;24.50;60.50;;;;;;5053130;28;20053;-75
2022/08/03 10:32:58;;;;;;;10.38;6.65;;;24.60;60.30;;;;;;5050554;28;20140;-75
2022/08/03 10:35:24;;;;;;;11.88;6.68;;;25.50;57.20;;;;;;5053011;28;20047;-74
2022/08/03 10:37:54;;;;;;;10.23;6.68;;;25.50;57.20;;;;;;5051326;28;20454;-74
2022/08/03 10:40:22;;;;;;;11.68;6.47;;;25.60;57.30;;;;;;5053035;28;20132;-76
2022/08/03 10:42:51;;;;;;;10.38;6.07;;;25.60;57.20;;;;;;5052567;28;20472;-74
2022/08/03 10:45:19;;;;;;;14.23;6.53;;;25.60;57.30;;;;;;5053584;28;20056;-75
2022/08/03 10:47:46;;;;;;;11.00;6.43;;;25.50;57.20;;;;;;5053295;28;20056;-75
2022/08/03 10:50:14;;;;;;;11.18;6.38;;;25.70;57.40;;;;;;5053019;28;20470;-75
2022/08/03 10:52:54;;;;;;;10.27;6.53;;;25.60;57.30;;;;;;5052620;28;20096;-74
2022/08/03 10:58:13;;;;;;;11.38;6.63;;;25.60;57.30;;;;;;5054326;28;20502;-75
2022/08/03 11:00:48;;;;;;;10.45;6.65;;;25.80;59.70;;;;;;5052292;28;20052;-76
2022/08/03 11:03:15;;;;;;;11.95;6.63;;;25.60;57.20;;;;;;5053182;28;20067;-74
2022/08/03 11:05:44;;;;;;;12.75;7.13;;;25.60;57.20;;;;;;5054236;28;20124;-73
2022/08/03 11:08:30;;;;;;;12.43;6.35;;;25.50;61.20;;;;;;5052554;28;20053;-73
2022/08/03 11:10:59;;;;;;;10.60;6.65;;;25.60;57.20;;;;;;5047579;28;20063;-72
2022/08/03 11:13:29;;;;;;;10.60;6.57;;;25.60;57.20;;;;;;5052905;28;20549;-73
2022/08/03 11:15:58;;;;;;;13.63;6.93;;;25.60;57.20;;;;;;5052571;28;20053;-72
2022/08/03 11:18:25;;;;;;;12.35;6.85;;;25.40;61.10;;;;;;5052667;28;20071;-73
2022/08/03 11:20:53;;;;;;;12.95;6.60;;;25.50;59.70;;;;;;5052625;28;20055;-74
2022/08/03 11:23:39;;;;;;;14.55;6.82;;;25.60;57.10;;;;;;5052199;28;20144;-74
2022/08/03 11:26:16;;;;;;;12.20;6.80;;;25.50;60.90;;;;;;5052362;28;20345;-73
2022/08/03 11:28:43;;;;;;;13.00;6.70;;;25.60;57.20;;;;;;5052362;28;20456;-76
2022/08/03 11:31:46;;;;;;;12.73;6.82;;;25.60;57.20;;;;;;5048809;28;20060;-73
2022/08/03 11:34:13;;;;;;;14.80;7.43;;;25.60;57.10;;;;;;5032584;28;20049;-73
2022/08/03 11:37:17;;;;;;;14.23;6.72;;;25.50;57.20;;;;;;5044023;28;20047;-74
2022/08/03 11:39:47;;;;;;;11.93;6.32;;;25.50;57.20;;;;;;5049567;28;20049;-75
2022/08/03 11:42:42;;;;;;;10.48;6.20;;;26.30;61.60;;;;;;5051661;28;20086;-74
2022/08/03 11:45:12;;;;;;;14.93;6.38;;;25.50;57.20;;;;;;5016748;28;20067;-75
2022/08/03 11:47:39;;;;;;;13.05;5.72;;;25.50;57.30;;;;;;5049096;28;20152;-75
2022/08/03 11:50:07;;;;;;;11.70;6.10;;;25.30;57.10;;;;;;5051433;28;20075;-75
2022/08/03 11:52:35;;;;;;;9.38;5.55;;;25.60;62.60;;;;;;5051583;28;20486;-75
2022/08/03 11:55:03;;;;;;;11.25;6.30;;;25.50;57.30;;;;;;5051229;28;20056;-75
2022/08/03 11:57:30;;;;;;;11.90;6.03;;;25.50;58.00;;;;;;5050880;28;20049;-76
2022/08/03 11:59:57;;;;;;;10.43;5.93;;;25.30;57.30;;;;;;5051104;28;20057;-76
2022/08/03 12:02:23;;;;;;;10.68;5.70;;;25.40;57.30;;;;;;5051548;28;20064;-76
2022/08/03 12:04:51;;;;;;;10.13;5.65;;;25.50;62.00;;;;;;5051153;28;20135;-76
2022/08/03 12:07:19;;;;;;;7.85;5.13;;;25.40;57.40;;;;;;5051783;28;20080;-76
2022/08/03 12:10:08;;;;;;;14.90;6.32;;;25.40;57.40;;;;;;5051862;28;20124;-76
2022/08/03 12:12:35;;;;;;;9.07;6.10;;;24.90;60.10;;;;;;5051406;28;20251;-76
2022/08/03 12:15:02;;;;;;;9.13;5.55;;;25.40;57.50;;;;;;5047919;28;20049;-76
2022/08/03 12:17:33;;;;;;;8.68;4.80;;;25.40;57.50;;;;;;5031874;28;20140;-76
2022/08/03 12:20:00;;;;;;;10.85;5.60;;;25.40;57.50;;;;;;5032465;28;20052;-76
2022/08/03 12:22:32;;;;;;;8.82;5.35;;;25.40;57.50;;;;;;5038117;28;20053;-76
2022/08/03 12:24:59;;;;;;;9.25;5.53;;;25.30;57.40;;;;;;5049982;28;20151;-76
2022/08/03 12:27:28;;;;;;;9.35;5.00;;;25.40;58.10;;;;;;5052063;28;20128;-76
2022/08/03 12:29:55;;;;;;;9.88;5.47;;;25.40;57.60;;;;;;5050483;28;20053;-76
2022/08/03 12:32:22;;;;;;;8.25;4.82;;;25.40;57.60;;;;;;5048529;28;20107;-76
2022/08/03 12:34:49;;;;;;;9.20;4.78;;;25.40;57.60;;;;;;5050511;28;20131;-76
2022/08/03 12:37:19;;;;;;;8.52;4.90;;;25.40;57.60;;;;;;5033963;28;20100;-75
2022/08/03 12:39:49;;;;;;;10.02;5.22;;;25.10;60.70;;;;;;5051180;28;20052;-76
2022/08/03 12:42:16;;;;;;;8.63;4.80;;;25.30;57.60;;;;;;5050651;28;20059;-75
2022/08/03 12:44:47;;;;;;;6.50;4.45;;;25.40;57.70;;;;;;5050157;28;20048;-76
2022/08/03 12:47:14;;;;;;;7.90;4.45;;;25.40;57.60;;;;;;5051104;28;20053;-76
2022/08/03 12:49:47;;;;;;;6.38;4.20;;;25.40;57.70;;;;;;5051096;28;20500;-76
2022/08/03 12:52:14;;;;;;;7.95;4.30;;;25.30;58.20;;;;;;5047487;28;20053;-75
2022/08/03 12:54:42;;;;;;;7.80;4.57;;;25.40;57.70;;;;;;5031091;28;20054;-75
2022/08/03 12:57:10;;;;;;;8.57;4.22;;;25.30;57.60;;;;;;5030814;28;20050;-76
2022/08/03 12:59:41;;;;;;;6.90;4.13;;;25.40;57.70;;;;;;5038984;28;20052;-73